Leonie — PHLE — position and weather

sailwx.info

Track history (hours):
 
Tides and Currents Weather Stations Pressure Air Temp Water Temp Dewpoint Dewpoint Depression Visibility Wind Speed Wind Dir Waves Ship Positions

Leonie

Last reported at 2015-Mar-26 23:32 UTC. Time now 2015-Mar-26 23:52 UTC.
Position N 54°09' E 012°07'.

Length 90 m; draft 3.6 m.

Type: Cargo ship. MMSI: 244772000.

Date/timePositionNaut miles runAvg speedWind from/ knotsBaromVisibWave heightAir tempDewpointWater temp
2015-Mar-26 23:32N 54°09' E 012°07'0 0.0
2015-Mar-26 22:29N 54°09' E 012°07'0 0.0
2015-Mar-26 21:32N 54°09' E 012°07'0 0.0
2015-Mar-26 20:32N 54°09' E 012°07'0 0.0
2015-Mar-26 19:32N 54°09' E 012°07'0 0.0
2015-Mar-26 18:32N 54°09' E 012°07'0 0.0
2015-Mar-26 17:32N 54°09' E 012°07'0 0.0
2015-Mar-26 16:20N 54°09' E 012°07'0 0.0
2015-Mar-26 15:29N 54°09' E 012°07'0 0.0
2015-Mar-26 14:32N 54°09' E 012°07'0 0.0
2015-Mar-26 13:32N 54°09' E 012°07'0 0.0
2015-Mar-26 12:32N 54°09' E 012°07'5 2.4
2015-Mar-26 10:33N 54°13' E 012°03'29061439.6
2015-Mar-26 08:32N 06°22' E 003°25'2905363.8
2015-Mar-26 00:33N 54°13' E 011°59'  
2015-Mar-22 22:33N 54°27' E 010°16'7 6.6
2015-Mar-22 21:33N 54°22' E 010°08'5 4.7
2015-Mar-22 20:33N 54°21' E 010°00'8 7.8
2015-Mar-22 19:33N 54°21' E 009°47'4 4.3
2015-Mar-22 18:33N 54°18' E 009°42'6 6.4
2015-Mar-22 17:33N 54°13' E 009°35'6 5.7
2015-Mar-22 16:33N 54°10' E 009°27'7 7.4
2015-Mar-22 15:33N 54°05' E 009°19'8 8.2
2015-Mar-22 14:33N 53°57' E 009°14'2 2.0
2015-Mar-22 13:33N 53°55' E 009°12'2 2.1
2015-Mar-22 12:34N 53°54' E 009°09'0 0.0
2015-Mar-22 11:34N 53°54' E 009°09'0 0.3
2015-Mar-22 10:34N 53°54' E 009°09'0 0.2
2015-Mar-22 09:33N 53°54' E 009°09'2 1.7
2015-Mar-22 08:33N 53°53' E 009°06'4 4.0
2015-Mar-22 07:33N 53°51' E 008°60'7 6.8
2015-Mar-22 06:34N 53°50' E 008°48'6 6.3
2015-Mar-22 05:34N 53°55' E 008°41'  
Track history (hours):
 
Tides and Currents Weather Stations Pressure Air Temp Water Temp Dewpoint Dewpoint Depression Visibility Wind Speed Wind Dir Waves Ship Positions

Leonie

Last reported at 2015-Mar-26 23:32 UTC. Time now 2015-Mar-26 23:52 UTC.
Position N 54°09' E 012°07'.

Length 90 m; draft 3.6 m.

Type: Cargo ship. MMSI: 244772000.

Date/timePositionNaut miles runAvg speedWind from/ knotsBaromVisibWave heightAir tempDewpointWater temp
2015-Mar-26 23:32N 54°09' E 012°07'0 0.0
2015-Mar-26 22:29N 54°09' E 012°07'0 0.0
2015-Mar-26 21:32N 54°09' E 012°07'0 0.0
2015-Mar-26 20:32N 54°09' E 012°07'0 0.0
2015-Mar-26 19:32N 54°09' E 012°07'0 0.0
2015-Mar-26 18:32N 54°09' E 012°07'0 0.0
2015-Mar-26 17:32N 54°09' E 012°07'0 0.0
2015-Mar-26 16:20N 54°09' E 012°07'0 0.0
2015-Mar-26 15:29N 54°09' E 012°07'0 0.0
2015-Mar-26 14:32N 54°09' E 012°07'0 0.0
2015-Mar-26 13:32N 54°09' E 012°07'0 0.0
2015-Mar-26 12:32N 54°09' E 012°07'5 2.4
2015-Mar-26 10:33N 54°13' E 012°03'29061439.6
2015-Mar-26 08:32N 06°22' E 003°25'2905363.8
2015-Mar-26 00:33N 54°13' E 011°59'  
2015-Mar-22 22:33N 54°27' E 010°16'7 6.6
2015-Mar-22 21:33N 54°22' E 010°08'5 4.7
2015-Mar-22 20:33N 54°21' E 010°00'8 7.8
2015-Mar-22 19:33N 54°21' E 009°47'4 4.3
2015-Mar-22 18:33N 54°18' E 009°42'6 6.4
2015-Mar-22 17:33N 54°13' E 009°35'6 5.7
2015-Mar-22 16:33N 54°10' E 009°27'7 7.4
2015-Mar-22 15:33N 54°05' E 009°19'8 8.2
2015-Mar-22 14:33N 53°57' E 009°14'2 2.0
2015-Mar-22 13:33N 53°55' E 009°12'2 2.1
2015-Mar-22 12:34N 53°54' E 009°09'0 0.0
2015-Mar-22 11:34N 53°54' E 009°09'0 0.3
2015-Mar-22 10:34N 53°54' E 009°09'0 0.2
2015-Mar-22 09:33N 53°54' E 009°09'2 1.7
2015-Mar-22 08:33N 53°53' E 009°06'4 4.0
2015-Mar-22 07:33N 53°51' E 008°60'7 6.8
2015-Mar-22 06:34N 53°50' E 008°48'6 6.3
2015-Mar-22 05:34N 53°55' E 008°41'  

Dump ship's entire track history